Time;durP1;ratioP1;P1;durP2;ratioP2;P2;SDS_P1;SDS_P2;PMS_P1;PMS_P2;Temp;Humidity;BMP_temperature;BMP_pressure;BME280_temperature;BME280_humidity;BME280_pressure;Samples;Min_cycle;Max_cycle;Signal;HPM_P1;HPM_P2
2022/11/25 00:02:24;;;;;;;20.50;6.85;;;;;;;-3.96;85.84;101140.31;4941260;28;20050;-63
2022/11/25 00:05:01;;;;;;;16.27;5.93;;;;;;;-3.83;85.58;101115.47;4910766;28;20453;-63
2022/11/25 00:07:42;;;;;;;22.38;9.48;;;;;;;-3.56;85.18;101141.66;4899510;28;20053;-63
2022/11/25 00:13:23;;;;;;;18.60;7.18;;;;;;;-3.35;83.18;101136.81;4909440;28;20363;-63
2022/11/25 00:16:05;;;;;;;38.65;13.68;;;;;;;-3.37;81.95;101148.63;4870143;28;20079;-63
2022/11/25 00:19:03;;;;;;;27.55;9.80;;;;;;;-3.28;81.31;101150.00;4930460;28;20098;-63
2022/11/25 00:21:42;;;;;;;27.15;11.23;;;;;;;-3.19;80.92;101154.72;4892279;28;20040;-63
2022/11/25 00:30:19;;;;;;;8.55;3.75;;;;;;;-3.01;80.58;101128.38;4917475;28;20072;-63
2022/11/25 00:33:09;;;;;;;8.27;3.80;;;;;;;-3.09;78.56;101151.88;4952338;28;20036;-63
2022/11/25 00:35:52;;;;;;;7.57;3.85;;;;;;;-3.14;78.26;101160.97;4946829;28;20044;-64
2022/11/25 00:38:40;;;;;;;31.92;10.82;;;;;;;-3.08;78.12;101143.38;4922108;28;20064;-64
2022/11/25 00:47:16;;;;;;;5.43;3.13;;;;;;;-2.94;77.58;101058.84;4940371;28;20058;-64
2022/11/25 00:50:02;;;;;;;5.85;3.15;;;;;;;-2.34;77.30;101121.56;4930640;28;20067;-64
2022/11/25 00:52:49;;;;;;;8.80;4.80;;;;;;;-2.17;76.94;101118.16;4918405;28;20104;-64
2022/11/25 00:56:11;;;;;;;5.43;3.30;;;;;;;-2.06;76.42;101107.53;4932969;28;20345;-65
2022/11/25 01:01:51;;;;;;;5.78;3.58;;;;;;;-1.92;76.20;101100.50;4946663;28;20092;-67
2022/11/25 01:04:28;;;;;;;12.70;5.68;;;;;;;-1.68;76.17;101117.03;4900165;28;20043;-66
2022/11/25 01:07:11;;;;;;;14.60;4.70;;;;;;;-1.39;76.43;101118.38;4953417;28;20148;-66
2022/11/25 01:10:06;;;;;;;6.15;3.85;;;;;;;-1.28;75.69;101112.84;4927388;28;20056;-65
2022/11/25 01:13:05;;;;;;;6.88;4.32;;;;;;;-1.13;74.82;101124.66;4906697;28;20069;-65
2022/11/25 01:15:45;;;;;;;6.32;3.58;;;;;;;-1.03;74.51;101131.09;4908133;28;20048;-65
2022/11/25 01:18:25;;;;;;;12.95;5.20;;;;;;;-0.92;73.99;101135.03;4907554;28;20061;-65
2022/11/25 01:21:11;;;;;;;5.60;3.50;;;;;;;-0.80;73.52;101129.56;4938058;28;20055;-65
2022/11/25 01:26:38;;;;;;;15.77;6.10;;;;;;;-0.60;72.35;101107.31;4904106;28;20073;-64
2022/11/25 01:29:21;;;;;;;8.65;4.57;;;;;;;-0.48;72.15;101107.78;4939485;28;20061;-65
2022/11/25 01:32:20;;;;;;;7.18;3.42;;;;;;;-0.30;73.07;101096.53;4941083;28;20040;-64
2022/11/25 01:35:10;;;;;;;6.28;3.72;;;;;;;-0.29;71.25;101098.31;4921355;28;20082;-65
2022/11/25 01:37:53;;;;;;;9.07;4.13;;;;;;;-0.43;70.71;101101.16;4949779;28;20078;-64
2022/11/25 01:40:32;;;;;;;12.55;5.72;;;;;;;-0.30;72.03;101101.66;4941200;27;20048;-64
2022/11/25 01:43:36;;;;;;;13.98;6.32;;;;;;;-0.30;70.90;101099.09;4918930;28;20037;-64
2022/11/25 01:46:37;;;;;;;15.70;4.95;;;;;;;-0.22;70.74;101100.31;4925427;28;20046;-64
2022/11/25 01:49:24;;;;;;;13.35;5.50;;;;;;;-0.12;71.06;101097.28;4932394;28;20139;-64
2022/11/25 01:52:15;;;;;;;16.08;4.97;;;;;;;0.04;70.55;101092.75;4933009;28;20040;-65
2022/11/25 01:55:01;;;;;;;14.48;8.00;;;;;;;0.07;69.54;101082.59;4934746;28;20064;-65
2022/11/25 01:57:47;;;;;;;15.10;7.10;;;;;;;0.07;68.93;101072.31;4918222;28;20103;-66
2022/11/25 02:00:27;;;;;;;13.13;6.80;;;;;;;0.05;68.30;101073.94;4906115;28;20353;-67
2022/11/25 02:03:17;;;;;;;6.85;4.00;;;;;;;0.08;67.99;101064.69;4908862;28;20055;-66
2022/11/25 02:06:12;;;;;;;6.25;4.00;;;;;;;-0.09;67.69;101020.34;4920134;28;20056;-66
2022/11/25 02:09:04;;;;;;;7.32;3.78;;;;;;;-0.07;67.59;100992.16;4882981;28;20067;-65
2022/11/25 02:11:48;;;;;;;8.88;4.10;;;;;;;-0.21;67.28;100963.34;4922784;28;20388;-66
2022/11/25 02:14:25;;;;;;;6.18;3.70;;;;;;;0.35;67.20;101039.16;4928912;28;20048;-64
2022/11/25 02:17:21;;;;;;;7.97;3.85;;;;;;;0.34;67.71;101032.25;4946767;28;20056;-66
2022/11/25 02:20:06;;;;;;;4.95;3.13;;;;;;;0.29;68.22;101035.47;4951970;28;20060;-65
2022/11/25 02:23:13;;;;;;;6.75;3.30;;;;;;;0.33;67.57;101025.38;4924888;28;20135;-65
2022/11/25 02:25:50;;;;;;;5.18;2.67;;;;;;;0.36;67.15;101020.34;4921758;28;20063;-66
2022/11/25 02:28:45;;;;;;;7.13;2.88;;;;;;;0.28;68.56;101015.75;4902134;28;20546;-65
2022/11/25 02:31:34;;;;;;;6.57;2.60;;;;;;;0.35;68.66;101018.59;4886008;28;20049;-65
2022/11/25 02:37:04;;;;;;;9.90;3.47;;;;;;;0.21;67.56;100982.09;4886924;28;20883;-65
2022/11/25 02:40:05;;;;;;;7.43;3.67;;;;;;;0.44;68.47;101002.63;4930124;28;20052;-66
2022/11/25 02:42:59;;;;;;;8.65;3.80;;;;;;;0.51;68.51;100999.44;4925591;28;20104;-65
2022/11/25 02:46:03;;;;;;;14.35;4.10;;;;;;;0.66;69.15;100998.25;4924374;28;20041;-66
2022/11/25 02:48:59;;;;;;;12.35;4.95;;;;;;;0.89;69.20;100993.91;4901030;28;20056;-66
2022/11/25 02:51:55;;;;;;;13.98;4.80;;;;;;;1.05;68.21;100988.47;4914549;28;20057;-64
2022/11/25 02:55:02;;;;;;;9.55;3.53;;;;;;;1.06;66.30;100979.91;4909092;28;20055;-65
2022/11/25 02:57:54;;;;;;;5.75;3.50;;;;;;;1.02;66.15;100972.91;4863010;28;20347;-64
2022/11/25 03:00:29;;;;;;;5.95;3.72;;;;;;;0.75;64.70;100944.53;4917157;28;20053;-65
2022/11/25 03:03:13;;;;;;;7.72;3.50;;;;;;;0.97;64.80;100971.88;4876980;28;20049;-65
2022/11/25 03:08:36;;;;;;;9.00;3.80;;;;;;;1.08;64.07;100962.84;4914371;28;20128;-65
2022/11/25 03:12:17;;;;;;;4.85;2.60;;;;;;;1.11;63.36;100967.22;4900974;28;20048;-65
2022/11/25 03:14:28;;;;;;;8.35;3.53;;;;;;;1.19;64.73;100971.75;4876303;28;20508;-65
2022/11/25 03:17:11;;;;;;;8.32;3.30;;;;;;;1.28;64.77;100964.34;4929183;28;20044;-65
2022/11/25 03:19:46;;;;;;;4.95;3.28;;;;;;;1.55;65.64;100960.91;4896547;28;20108;-66
2022/11/25 03:22:25;;;;;;;7.53;3.78;;;;;;;1.68;64.58;100968.19;4924478;28;20151;-66
2022/11/25 03:25:07;;;;;;;4.75;3.00;;;;;;;1.68;63.89;100942.44;4918443;28;20049;-65
2022/11/25 03:27:51;;;;;;;7.57;2.55;;;;;;;1.46;62.85;100903.97;4920993;28;20062;-67
2022/11/25 03:30:34;;;;;;;4.03;2.47;;;;;;;1.42;61.53;100886.66;4903161;28;20127;-67
2022/11/25 03:33:24;;;;;;;7.80;3.15;;;;;;;1.85;62.94;100939.50;4936286;28;20086;-66
2022/11/25 03:36:07;;;;;;;10.15;2.58;;;;;;;1.78;62.42;100929.84;4917343;28;20041;-68
2022/11/25 03:39:09;;;;;;;5.40;3.03;;;;;;;1.80;63.36;100912.69;4926969;28;20056;-67
2022/11/25 03:42:05;;;;;;;4.50;2.60;;;;;;;1.71;62.71;100911.59;4911513;28;20067;-67
2022/11/25 03:44:45;;;;;;;6.43;2.80;;;;;;;1.87;63.36;100896.59;4931234;28;20097;-68
2022/11/25 03:47:33;;;;;;;2.75;2.40;;;;;;;1.93;62.48;100902.81;4904157;28;20402;-69
2022/11/25 03:50:30;;;;;;;5.50;2.65;;;;;;;1.86;62.62;100874.22;4925434;28;20346;-67
2022/11/25 03:53:27;;;;;;;5.85;2.80;;;;;;;2.04;63.15;100894.50;4886839;28;20044;-68
2022/11/25 03:56:47;;;;;;;8.82;3.10;;;;;;;2.04;63.00;100889.34;4942627;28;20052;-68
2022/11/25 04:00:01;;;;;;;6.55;3.20;;;;;;;1.83;61.51;100889.63;4824323;28;20069;-69
2022/11/25 04:02:47;;;;;;;4.97;3.30;;;;;;;1.71;63.83;100885.84;4886414;28;20048;-68
2022/11/25 04:05:40;;;;;;;6.45;3.00;;;;;;;1.64;62.74;100899.34;4882446;28;20079;-69
2022/11/25 04:08:19;;;;;;;7.00;3.72;;;;;;;1.49;63.43;100898.91;4912273;28;20113;-68
2022/11/25 04:11:05;;;;;;;6.22;3.10;;;;;;;1.34;63.36;100893.28;4935575;28;20048;-67
2022/11/25 04:13:50;;;;;;;6.30;3.92;;;;;;;1.27;63.93;100905.97;4942461;28;20048;-68
2022/11/25 04:16:31;;;;;;;7.03;3.63;;;;;;;1.14;64.05;100911.53;4909337;28;20047;-70
2022/11/25 04:19:53;;;;;;;11.32;3.70;;;;;;;1.14;64.28;100903.81;4907180;28;20060;-68
2022/11/25 04:22:29;;;;;;;8.60;3.70;;;;;;;1.25;64.71;100910.19;4914590;28;20075;-68
2022/11/25 04:25:21;;;;;;;12.20;3.97;;;;;;;1.24;64.17;100908.44;4922531;28;20187;-67
2022/11/25 04:28:08;;;;;;;10.10;4.60;;;;;;;1.23;63.51;100913.56;4912848;28;20116;-69
2022/11/25 04:30:48;;;;;;;9.98;4.13;;;;;;;1.28;64.10;100915.44;4945036;28;20044;-68
2022/11/25 04:33:48;;;;;;;6.32;3.60;;;;;;;1.31;63.02;100908.63;4955801;28;20423;-70
2022/11/25 04:39:28;;;;;;;18.02;5.30;;;;;;;1.55;65.10;100893.94;4873997;27;20305;-68
2022/11/25 04:45:12;;;;;;;12.98;6.22;;;;;;;1.71;65.88;100893.56;4884270;28;20063;-70
2022/11/25 04:48:02;;;;;;;10.07;6.35;;;;;;;1.76;65.76;100892.84;4890851;28;20222;-69
2022/11/25 04:50:53;;;;;;;9.55;5.60;;;;;;;1.74;65.84;100890.19;4931329;28;20124;-70
2022/11/25 04:53:55;;;;;;;13.93;5.93;;;;;;;1.81;65.90;100910.16;4912428;28;20061;-67
2022/11/25 04:56:42;;;;;;;20.40;8.68;;;;;;;1.67;63.88;100909.78;4923336;28;20043;-70
2022/11/25 04:59:48;;;;;;;21.20;8.82;;;;;;;1.56;63.42;100910.28;4919553;28;20068;-67
2022/11/25 05:02:28;;;;;;;32.97;12.40;;;;;;;1.54;65.08;100897.34;4888513;28;20052;-69
2022/11/25 05:05:16;;;;;;;18.88;7.30;;;;;;;1.36;65.11;100884.78;4927730;28;20095;-69
2022/11/25 05:07:56;;;;;;;15.00;5.72;;;;;;;1.47;65.32;100900.53;4953198;28;20047;-68
2022/11/25 05:10:52;;;;;;;12.63;5.78;;;;;;;1.48;64.95;100904.88;4903980;28;20053;-69
2022/11/25 05:13:30;;;;;;;11.90;5.28;;;;;;;1.42;65.58;100897.84;4930669;27;20063;-71
2022/11/25 05:16:15;;;;;;;7.90;5.05;;;;;;;1.30;64.47;100900.03;4889351;28;20072;-68
2022/11/25 05:19:10;;;;;;;14.05;5.72;;;;;;;1.38;65.18;100910.59;4912869;28;20291;-68
2022/11/25 05:22:09;;;;;;;;;;;;;;;1.46;67.61;100903.97;4911933;28;20040;-69
2022/11/25 05:25:04;;;;;;;16.92;4.68;;;;;;;1.46;67.32;100914.25;4928352;28;19927;-69
2022/11/25 05:27:52;;;;;;;10.02;4.35;;;;;;;1.45;68.22;100905.66;4925656;28;20049;-68
2022/11/25 05:30:38;;;;;;;11.70;5.00;;;;;;;1.34;68.06;100903.59;4906533;28;20040;-66
2022/11/25 05:33:18;;;;;;;;;;;;;;;1.28;67.25;100900.00;4903905;28;20048;-68
2022/11/25 05:36:05;;;;;;;11.35;4.65;;;;;;;1.20;67.79;100892.84;4946814;27;19934;-68
2022/11/25 05:38:58;;;;;;;5.65;3.60;;;;;;;0.97;68.47;100871.50;4914816;28;20384;-67
2022/11/25 05:42:03;;;;;;;7.55;3.97;;;;;;;1.00;68.18;100898.25;4876721;28;20055;-68
2022/11/25 05:45:00;;;;;;;11.40;4.55;;;;;;;1.01;70.08;100914.56;4910591;28;20044;-68
2022/11/25 05:47:50;;;;;;;8.40;3.72;;;;;;;0.88;69.11;100908.13;4930413;28;20147;-67
2022/11/25 05:50:29;;;;;;;9.18;5.22;;;;;;;0.85;69.53;100914.06;4931148;28;20066;-72
2022/11/25 05:56:21;;;;;;;8.40;4.40;;;;;;;0.82;69.74;100908.81;4903823;28;20048;-67
2022/11/25 05:59:22;;;;;;;7.55;4.57;;;;;;;0.69;69.09;100911.78;4812015;28;20403;-67
2022/11/25 06:02:07;;;;;;;7.88;4.35;;;;;;;0.59;68.92;100910.56;4893579;28;20075;-68
2022/11/25 06:04:56;;;;;;;9.93;4.65;;;;;;;0.50;69.65;100899.09;4925658;28;20101;-65
2022/11/25 06:07:48;;;;;;;12.38;5.28;;;;;;;0.50;68.73;100909.38;4907804;28;20047;-66
2022/11/25 06:10:56;;;;;;;10.32;4.28;;;;;;;0.43;69.90;100903.16;4897706;28;20080;-66
2022/11/25 06:13:32;;;;;;;11.38;5.13;;;;;;;0.36;69.49;100891.78;4923225;28;20048;-67
2022/11/25 06:16:17;;;;;;;15.00;4.75;;;;;;;0.20;69.31;100879.22;4895077;28;20400;-65
2022/11/25 06:19:06;;;;;;;10.38;4.60;;;;;;;0.23;69.85;100899.91;4917742;28;20131;-68
2022/11/25 06:21:48;;;;;;;10.52;4.90;;;;;;;0.27;70.71;100885.44;4867122;28;20047;-68
2022/11/25 06:24:35;;;;;;;10.00;5.15;;;;;;;-0.23;71.17;100816.03;4912087;28;20059;-68
2022/11/25 06:27:25;;;;;;;11.27;5.18;;;;;;;0.02;71.09;100869.16;4928929;28;20052;-68
2022/11/25 06:30:18;;;;;;;10.18;5.15;;;;;;;-0.02;71.34;100877.59;4920815;28;20085;-68
2022/11/25 06:33:06;;;;;;;13.45;5.95;;;;;;;0.04;70.89;100887.22;4933189;28;20051;-70
2022/11/25 06:35:58;;;;;;;10.25;5.07;;;;;;;0.01;70.84;100887.97;4933869;28;21232;-69
2022/11/25 06:38:43;;;;;;;12.23;5.70;;;;;;;-0.02;71.11;100888.72;4842394;28;20040;-69
2022/11/25 06:41:40;;;;;;;10.88;5.78;;;;;;;-0.11;71.30;100872.09;4930358;28;20520;-69
2022/11/25 06:44:30;;;;;;;12.32;5.88;;;;;;;-0.16;71.29;100884.78;4913554;28;20048;-69
2022/11/25 06:47:11;;;;;;;;;;;;;;;-0.23;71.56;100875.97;4899473;28;20049;-67
2022/11/25 06:50:07;;;;;;;11.23;5.57;;;;;;;-0.36;71.64;100871.19;4957821;28;20377;-70
2022/11/25 06:52:49;;;;;;;13.05;5.10;;;;;;;-0.44;71.87;100870.91;4892466;28;20050;-68
2022/11/25 06:55:35;;;;;;;14.05;6.25;;;;;;;-0.56;71.68;100867.88;4940530;28;20095;-67
2022/11/25 06:58:14;;;;;;;10.52;5.38;;;;;;;-0.60;72.02;100866.03;4916933;28;20087;-68
2022/11/25 07:01:13;;;;;;;12.32;6.35;;;;;;;-0.66;72.35;100863.22;4896959;28;20566;-67
2022/11/25 07:04:16;;;;;;;;;;;;;;;-0.75;72.25;100865.41;4879026;28;20058;-69
2022/11/25 07:07:27;;;;;;;13.73;6.13;;;;;;;-0.79;72.71;100868.69;4897615;28;20008;-68
2022/11/25 07:10:17;;;;;;;18.58;6.78;;;;;;;-0.77;73.40;100861.94;4897437;28;20046;-68
2022/11/25 07:12:58;;;;;;;16.13;6.50;;;;;;;-0.72;74.47;100855.28;4884830;28;20089;-67
2022/11/25 07:15:46;;;;;;;12.68;6.25;;;;;;;-0.81;74.61;100847.22;4901032;28;20049;-67
2022/11/25 07:18:26;;;;;;;14.77;6.40;;;;;;;-0.90;74.80;100840.94;4891818;28;20215;-68
2022/11/25 07:21:11;;;;;;;13.57;5.95;;;;;;;-1.15;74.96;100820.22;4905718;28;20072;-68
2022/11/25 07:24:14;;;;;;;12.95;6.60;;;;;;;-0.87;75.99;100860.69;4875333;28;20053;-67
2022/11/25 07:27:16;;;;;;;15.70;6.57;;;;;;;-0.92;75.70;100857.94;4901625;28;20048;-68
2022/11/25 07:30:05;;;;;;;16.38;6.97;;;;;;;-1.02;75.99;100858.41;4885019;28;20045;-68
2022/11/25 07:33:06;;;;;;;13.25;6.75;;;;;;;-1.15;75.83;100863.81;4878482;28;20046;-67
2022/11/25 07:38:45;;;;;;;14.68;6.53;;;;;;;-1.53;76.91;100824.69;4873035;28;20049;-69
2022/11/25 07:41:26;;;;;;;16.98;7.07;;;;;;;-1.27;76.92;100873.59;4853498;28;20530;-67
2022/11/25 07:44:11;;;;;;;16.48;7.07;;;;;;;-1.27;77.58;100878.72;4882148;28;20479;-68
2022/11/25 07:46:55;;;;;;;16.13;7.10;;;;;;;-1.23;78.05;100880.59;4857535;28;20109;-68
2022/11/25 07:49:42;;;;;;;12.30;7.03;;;;;;;-1.17;77.95;100883.44;4847683;28;20054;-67
2022/11/25 07:52:29;;;;;;;18.20;6.90;;;;;;;-1.18;78.03;100895.34;4868195;28;20037;-68
2022/11/25 07:55:15;;;;;;;17.88;7.35;;;;;;;-1.14;78.00;100896.38;4884456;28;20098;-68
2022/11/25 07:57:59;;;;;;;21.80;7.90;;;;;;;-1.13;77.71;100882.72;4911465;28;20052;-68
2022/11/25 08:00:41;;;;;;;17.70;7.47;;;;;;;-1.11;77.68;100884.53;4891897;28;20048;-68
2022/11/25 08:03:18;;;;;;;12.60;7.20;;;;;;;-1.06;78.44;100879.59;4942075;28;20044;-67
2022/11/25 08:05:56;;;;;;;14.52;6.85;;;;;;;-1.05;77.94;100865.94;4924238;28;20059;-70
2022/11/25 08:11:31;;;;;;;16.15;7.30;;;;;;;-1.11;77.48;100865.72;4975931;27;20180;-81
2022/11/25 08:14:03;;;;;;;16.58;7.93;;;;;;;-1.00;78.21;100874.72;4969690;28;20224;-80
2022/11/25 08:16:34;;;;;;;17.70;7.43;;;;;;;-0.91;78.16;100869.94;4963578;28;20141;-80
2022/11/25 08:19:08;;;;;;;17.60;7.97;;;;;;;-0.90;78.48;100846.06;4973284;28;20228;-80
2022/11/25 08:21:42;;;;;;;17.13;8.00;;;;;;;-0.79;77.96;100863.56;4975979;28;20070;-80
2022/11/25 08:24:15;;;;;;;16.83;7.57;;;;;;;-0.78;77.90;100855.91;4967560;28;20099;-80
2022/11/25 08:26:49;;;;;;;16.55;7.75;;;;;;;-0.93;78.47;100840.78;4974765;28;20080;-80
2022/11/25 08:29:21;;;;;;;21.60;8.13;;;;;;;-0.71;78.54;100851.88;4975036;28;20062;-80
2022/11/25 08:31:55;;;;;;;16.70;8.73;;;;;;;-0.67;79.05;100848.63;4977201;28;20176;-80
2022/11/25 08:34:27;;;;;;;20.15;9.77;;;;;;;-0.61;79.09;100848.84;4957601;28;20274;-80
2022/11/25 08:37:00;;;;;;;20.58;9.90;;;;;;;-0.65;78.36;100841.84;4969530;28;20078;-80
2022/11/25 08:39:32;;;;;;;20.95;9.25;;;;;;;-0.74;77.70;100831.25;4974511;28;20067;-80
2022/11/25 08:42:24;;;;;;;27.17;11.38;;;;;;;-0.84;78.23;100798.38;4971832;28;20044;-80
2022/11/25 08:44:57;;;;;;;31.20;12.32;;;;;;;-0.55;78.99;100843.97;4973411;28;20083;-80
2022/11/25 08:47:30;;;;;;;35.78;15.43;;;;;;;-0.48;79.29;100829.66;4976194;28;20042;-80
2022/11/25 08:50:02;;;;;;;43.92;16.63;;;;;;;-0.50;78.67;100811.66;4973665;28;20100;-80
2022/11/25 08:52:33;;;;;;;19.50;9.52;;;;;;;-0.52;78.78;100797.88;4966889;28;20041;-80
2022/11/25 08:55:05;;;;;;;19.92;8.70;;;;;;;-0.57;78.67;100786.56;4976767;28;20070;-81
2022/11/25 08:57:38;;;;;;;26.02;7.90;;;;;;;-0.48;79.29;100789.44;4969295;28;20061;-81
2022/11/25 09:00:10;;;;;;;16.60;8.18;;;;;;;-0.48;78.72;100768.91;4972980;28;20067;-77
2022/11/25 09:02:41;;;;;;;14.15;7.93;;;;;;;-0.55;79.82;100730.13;4971258;28;20092;-78
2022/11/25 09:05:16;;;;;;;21.23;8.73;;;;;;;-0.43;78.91;100751.09;4964266;28;20052;-79
2022/11/25 09:07:47;;;;;;;17.73;8.70;;;;;;;-0.54;78.55;100737.91;4972383;28;20040;-78
2022/11/25 09:10:18;;;;;;;22.33;8.60;;;;;;;-0.47;78.75;100727.03;4971215;28;20055;-77
2022/11/25 09:12:52;;;;;;;15.40;7.63;;;;;;;-0.48;78.45;100727.84;4969653;28;20335;-79
2022/11/25 09:15:24;;;;;;;18.52;9.27;;;;;;;-0.63;78.06;100711.88;4955929;28;20047;-78
2022/11/25 09:18:01;;;;;;;20.65;9.23;;;;;;;-0.44;78.15;100724.56;4964097;28;20100;-79
2022/11/25 09:20:33;;;;;;;24.98;9.65;;;;;;;-0.53;77.70;100724.22;4960934;28;20041;-79
2022/11/25 09:23:05;;;;;;;19.67;8.57;;;;;;;-0.72;77.20;100696.19;4950426;28;20111;-78
2022/11/25 09:25:37;;;;;;;16.77;8.73;;;;;;;-0.83;77.86;100713.72;4957123;28;20048;-80
2022/11/25 09:28:14;;;;;;;13.73;7.00;;;;;;;-0.93;78.48;100709.94;4957168;28;20054;-78
2022/11/25 09:30:45;;;;;;;14.43;7.03;;;;;;;-0.97;79.19;100710.66;4947146;28;20096;-79
2022/11/25 09:33:19;;;;;;;12.63;7.25;;;;;;;-0.98;79.06;100714.03;4950614;28;20051;-79
2022/11/25 09:35:50;;;;;;;16.23;6.55;;;;;;;-0.97;79.85;100715.81;4966516;28;20062;-79
2022/11/25 09:38:23;;;;;;;18.33;6.97;;;;;;;-0.90;80.51;100707.53;4956844;28;20408;-78
2022/11/25 09:40:59;;;;;;;14.63;7.95;;;;;;;-1.34;80.56;100629.78;4940568;28;20627;-78
2022/11/25 09:46:58;;;;;;;20.00;10.80;;;;;;;-0.83;81.39;100710.31;4924500;28;20050;-77
2022/11/25 09:49:48;;;;;;;24.33;10.43;;;;;;;-0.78;81.87;100701.06;4945639;28;20047;-77
2022/11/25 09:52:34;;;;;;;29.05;12.52;;;;;;;-0.77;81.69;100687.44;4938675;28;20039;-78
2022/11/25 09:55:09;;;;;;;31.70;13.90;;;;;;;-0.79;81.95;100683.94;4947912;28;20114;-78
2022/11/25 09:57:53;;;;;;;40.22;17.35;;;;;;;-0.71;81.85;100677.38;4950653;28;20048;-79
2022/11/25 10:00:38;;;;;;;40.50;17.23;;;;;;;-0.56;81.27;100698.47;4941586;28;20068;-78
2022/11/25 10:03:17;;;;;;;39.00;17.02;;;;;;;-0.53;80.91;100688.28;4942356;28;20238;-78
2022/11/25 10:05:58;;;;;;;29.73;14.77;;;;;;;-0.53;80.42;100678.03;4945384;28;20048;-78
2022/11/25 10:08:34;;;;;;;41.53;17.20;;;;;;;-0.57;79.78;100673.63;4939301;28;20348;-78
2022/11/25 10:11:20;;;;;;;33.78;16.17;;;;;;;-0.48;79.90;100691.03;4919305;28;20116;-79
2022/11/25 10:13:57;;;;;;;36.83;14.95;;;;;;;-0.51;80.15;100686.66;4919987;28;20060;-78
2022/11/25 10:16:35;;;;;;;31.83;15.45;;;;;;;-0.62;80.27;100659.75;4917642;28;20044;-78
2022/11/25 10:19:16;;;;;;;29.95;14.32;;;;;;;-0.44;80.81;100688.63;4918192;28;20150;-78
2022/11/25 10:21:48;;;;;;;29.57;14.10;;;;;;;-0.67;80.79;100661.28;4917857;28;20045;-79
2022/11/25 10:24:20;;;;;;;62.08;24.63;;;;;;;-0.83;80.32;100630.75;4925430;28;20271;-81
2022/11/25 10:26:58;;;;;;;89.25;47.00;;;;;;;-1.07;80.39;100593.16;4922552;28;20060;-80
2022/11/25 10:29:31;;;;;;;24.55;13.35;;;;;;;-0.83;80.93;100652.16;4906356;28;20345;-79
2022/11/25 10:32:22;;;;;;;114.93;45.75;;;;;;;-1.03;81.25;100643.75;4929351;28;20056;-79
2022/11/25 10:35:01;;;;;;;31.77;14.93;;;;;;;-1.18;82.49;100648.31;4906001;28;20099;-79
2022/11/25 10:37:38;;;;;;;13.35;7.20;;;;;;;-1.32;82.84;100640.13;4923434;28;20071;-79
2022/11/25 10:40:15;;;;;;;13.32;6.60;;;;;;;-1.24;83.23;100663.47;4916461;28;20048;-78
2022/11/25 10:42:49;;;;;;;10.82;6.10;;;;;;;-1.32;83.42;100669.19;4913481;28;20075;-78
2022/11/25 10:45:52;;;;;;;12.15;6.43;;;;;;;-1.59;84.14;100629.69;4899990;28;20051;-78
2022/11/25 10:48:44;;;;;;;9.52;6.05;;;;;;;-1.43;84.91;100639.69;4919562;28;20329;-79
2022/11/25 10:51:32;;;;;;;16.80;7.05;;;;;;;-1.53;85.08;100619.66;4893931;28;20371;-78
2022/11/25 10:54:21;;;;;;;21.38;10.65;;;;;;;-1.43;85.11;100632.00;4915342;28;20044;-78
2022/11/25 10:56:59;;;;;;;29.63;13.02;;;;;;;-1.78;85.14;100557.22;4919863;28;20262;-79
2022/11/25 10:59:36;;;;;;;27.30;12.68;;;;;;;-1.36;85.38;100612.63;4928673;28;20064;-79
2022/11/25 11:02:25;;;;;;;17.55;9.45;;;;;;;-1.38;86.09;100594.59;4923040;28;20099;-78
2022/11/25 11:05:03;;;;;;;13.25;7.78;;;;;;;-1.37;86.10;100586.13;4912712;28;20114;-79
2022/11/25 11:07:36;;;;;;;14.23;8.15;;;;;;;-1.41;85.81;100589.38;4904165;28;20559;-79
2022/11/25 11:10:22;;;;;;;18.27;12.55;;;;;;;-1.43;86.29;100585.88;4935592;28;20039;-79
2022/11/25 11:15:54;;;;;;;12.73;6.32;;;;;;;-1.34;86.43;100559.72;4935143;28;20947;-79
2022/11/25 11:18:42;;;;;;;11.13;5.72;;;;;;;-1.23;86.44;100563.53;4938161;28;20044;-79
2022/11/25 11:21:27;;;;;;;11.35;6.00;;;;;;;-1.21;86.32;100555.91;4937893;28;20045;-79
2022/11/25 11:23:58;;;;;;;9.38;5.68;;;;;;;-1.21;85.83;100553.34;4922501;28;20051;-79
2022/11/25 11:26:31;;;;;;;22.88;12.10;;;;;;;-1.26;86.23;100548.03;4931018;28;20040;-79
2022/11/25 11:29:05;;;;;;;12.18;7.28;;;;;;;-1.19;86.40;100538.88;4936832;28;20049;-79
2022/11/25 11:31:49;;;;;;;11.43;6.70;;;;;;;-1.14;86.41;100527.09;4919401;28;20103;-78
2022/11/25 11:34:49;;;;;;;18.05;7.60;;;;;;;-1.01;86.41;100528.38;4934979;28;20343;-79
2022/11/25 11:37:37;;;;;;;10.73;5.80;;;;;;;-0.95;86.31;100534.63;4933060;28;20352;-78
2022/11/25 11:40:36;;;;;;;11.27;6.18;;;;;;;-0.98;85.99;100524.22;4912591;28;20071;-79
2022/11/25 11:43:29;;;;;;;12.35;5.85;;;;;;;-0.80;85.71;100538.50;4931700;28;20391;-79
2022/11/25 11:46:25;;;;;;;13.13;6.72;;;;;;;-0.74;85.40;100533.59;4922106;28;20099;-79
2022/11/25 11:49:13;;;;;;;17.40;9.27;;;;;;;-0.80;84.52;100536.84;4926951;28;20070;-79
2022/11/25 11:51:54;;;;;;;19.67;9.23;;;;;;;-0.95;83.63;100519.22;4932833;27;20561;-80
2022/11/25 11:54:35;;;;;;;18.88;9.18;;;;;;;-0.87;83.61;100517.78;4934805;28;20053;-80
2022/11/25 11:57:13;;;;;;;17.85;8.40;;;;;;;-0.93;83.63;100507.28;4917598;28;20055;-80
2022/11/25 11:59:54;;;;;;;16.88;9.05;;;;;;;-1.00;83.84;100478.81;4918214;28;20045;-80
2022/11/25 12:02:36;;;;;;;;;;;;;;;-0.93;83.32;100494.47;4937200;28;20047;-80
2022/11/25 12:05:25;;;;;;;23.75;11.13;;;;;;;-0.97;83.31;100479.81;4936608;28;20012;-80
2022/11/25 12:12:11;;;;;;;27.42;13.20;;;;;;;-0.77;84.29;100471.91;4929570;28;20090;-80
2022/11/25 12:14:44;;;;;;;152.63;54.38;;;;;;;-0.92;84.45;100414.16;4919835;28;20375;-80
2022/11/25 12:17:19;;;;;;;252.32;99.30;;;;;;;-0.72;84.77;100440.44;4930516;28;20041;-80
2022/11/25 12:19:59;;;;;;;56.53;25.10;;;;;;;-0.74;84.74;100430.94;4930118;28;20546;-80
2022/11/25 12:22:38;;;;;;;32.50;14.52;;;;;;;-0.87;84.72;100404.03;4920594;28;20256;-80
2022/11/25 12:25:18;;;;;;;30.80;13.32;;;;;;;-0.84;84.54;100411.81;4920521;28;20045;-80
2022/11/25 12:27:56;;;;;;;24.95;13.13;;;;;;;-0.83;84.16;100415.25;4920216;28;20356;-80
2022/11/25 12:30:35;;;;;;;26.00;14.05;;;;;;;-0.79;84.55;100414.53;4920660;28;20101;-80
2022/11/25 12:33:11;;;;;;;28.73;12.50;;;;;;;-1.03;84.48;100365.88;4919729;28;20086;-80
2022/11/25 12:35:54;;;;;;;25.23;13.23;;;;;;;-0.92;84.07;100379.94;4928915;28;20100;-80
2022/11/25 12:38:38;;;;;;;23.45;12.57;;;;;;;-0.85;84.35;100379.28;4920408;28;20056;-80
2022/11/25 12:41:21;;;;;;;17.75;9.35;;;;;;;-0.96;83.88;100362.69;4919609;28;20063;-80
2022/11/25 12:44:01;;;;;;;19.60;10.20;;;;;;;-0.69;83.58;100388.34;4919846;28;20261;-80
2022/11/25 12:46:40;;;;;;;22.83;11.05;;;;;;;-0.61;83.12;100386.00;4919720;28;20641;-80
2022/11/25 12:49:19;;;;;;;21.48;9.95;;;;;;;-0.68;82.81;100379.81;4919887;28;20046;-80
2022/11/25 12:52:15;;;;;;;22.15;9.90;;;;;;;-0.67;82.93;100382.44;4919771;28;20068;-80
2022/11/25 12:55:11;;;;;;;20.05;9.32;;;;;;;-0.71;82.44;100379.72;4908939;28;20040;-80
2022/11/25 12:58:32;;;;;;;18.52;9.82;;;;;;;-0.75;82.99;100367.59;4912204;28;20115;-80
2022/11/25 13:01:44;;;;;;;18.25;8.65;;;;;;;-0.66;83.03;100357.63;4914431;28;20086;-80
2022/11/25 13:04:47;;;;;;;18.80;9.13;;;;;;;-0.63;83.68;100357.72;4904952;28;20059;-80
2022/11/25 13:07:32;;;;;;;15.25;7.55;;;;;;;-0.71;84.62;100323.28;4918584;28;20064;-80
2022/11/25 13:10:32;;;;;;;15.35;8.73;;;;;;;-0.40;85.06;100344.69;4926436;28;20049;-80
2022/11/25 13:13:32;;;;;;;20.48;9.43;;;;;;;-0.35;85.64;100336.34;4934780;28;20051;-80
2022/11/25 13:16:06;;;;;;;17.92;8.70;;;;;;;-0.40;85.46;100329.28;4946317;28;20056;-80
2022/11/25 13:18:41;;;;;;;13.85;6.05;;;;;;;-0.46;86.25;100325.72;4965452;28;20043;-80
2022/11/25 13:21:13;;;;;;;7.75;4.22;;;;;;;-0.25;88.27;100315.22;4964316;28;20245;-80
2022/11/25 13:23:51;;;;;;;6.10;3.35;;;;;;;-0.09;88.66;100311.38;4965216;28;20058;-80
2022/11/25 13:26:47;;;;;;;4.97;2.78;;;;;;;0.12;89.79;100300.78;4965531;28;20067;-80
2022/11/25 13:30:02;;;;;;;7.63;4.35;;;;;;;0.17;89.07;100288.06;4954167;28;20341;-80
2022/11/25 13:32:41;;;;;;;8.40;5.07;;;;;;;0.09;88.55;100289.56;4949400;28;20037;-80
2022/11/25 13:35:39;;;;;;;14.73;5.80;;;;;;;-0.01;88.38;100273.03;4963793;28;20360;-80
2022/11/25 13:38:48;;;;;;;10.35;5.30;;;;;;;-0.10;89.12;100253.13;4954462;28;20054;-81